sensor_id;sensor_type;location;lat;lon;timestamp;pressure;altitude;pressure_sealevel;temperature;humidity
74218;BME280;62579;47.288;18.646;2023-10-08T00:02:15;100016.72;;;17.60;70.26
74218;BME280;62579;47.288;18.646;2023-10-08T00:04:47;100004.78;;;17.57;70.39
74218;BME280;62579;47.288;18.646;2023-10-08T00:07:13;100008.56;;;17.75;70.22
74218;BME280;62579;47.288;18.646;2023-10-08T00:09:38;100006.25;;;17.58;70.80
74218;BME280;62579;47.288;18.646;2023-10-08T00:12:04;100002.69;;;17.50;71.31
74218;BME280;62579;47.288;18.646;2023-10-08T00:14:30;99999.91;;;17.42;70.30
74218;BME280;62579;47.288;18.646;2023-10-08T00:16:57;99985.78;;;17.46;68.25
74218;BME280;62579;47.288;18.646;2023-10-08T00:19:23;99979.69;;;17.61;59.35
74218;BME280;62579;47.288;18.646;2023-10-08T00:21:49;99972.53;;;18.01;53.42
74218;BME280;62579;47.288;18.646;2023-10-08T00:24:18;99963.25;;;18.19;52.78
74218;BME280;62579;47.288;18.646;2023-10-08T00:26:43;99962.19;;;18.37;52.15
74218;BME280;62579;47.288;18.646;2023-10-08T00:29:09;99949.59;;;18.49;51.22
74218;BME280;62579;47.288;18.646;2023-10-08T00:31:47;99949.97;;;18.69;49.86
74218;BME280;62579;47.288;18.646;2023-10-08T00:34:15;99956.59;;;18.88;48.89
74218;BME280;62579;47.288;18.646;2023-10-08T00:36:43;99944.66;;;18.93;48.59
74218;BME280;62579;47.288;18.646;2023-10-08T00:39:10;99943.91;;;19.15;47.33
74218;BME280;62579;47.288;18.646;2023-10-08T00:41:43;99939.28;;;19.26;46.94
74218;BME280;62579;47.288;18.646;2023-10-08T00:44:10;99943.91;;;19.46;45.74
74218;BME280;62579;47.288;18.646;2023-10-08T00:46:41;99939.28;;;19.56;45.36
74218;BME280;62579;47.288;18.646;2023-10-08T00:49:15;99935.94;;;19.65;45.07
74218;BME280;62579;47.288;18.646;2023-10-08T00:51:44;99940.31;;;19.75;45.03
74218;BME280;62579;47.288;18.646;2023-10-08T00:54:12;99933.84;;;19.81;44.75
74218;BME280;62579;47.288;18.646;2023-10-08T00:56:45;99929.78;;;19.89;44.65
74218;BME280;62579;47.288;18.646;2023-10-08T00:59:17;99932.87;;;19.93;44.20
74218;BME280;62579;47.288;18.646;2023-10-08T01:01:47;99928.47;;;19.98;44.37
74218;BME280;62579;47.288;18.646;2023-10-08T01:04:30;99937.84;;;19.95;44.50
74218;BME280;62579;47.288;18.646;2023-10-08T01:06:59;99929.38;;;20.00;44.12
74218;BME280;62579;47.288;18.646;2023-10-08T01:09:39;99928.25;;;20.03;44.22
74218;BME280;62579;47.288;18.646;2023-10-08T01:12:18;99933.63;;;19.94;44.89
74218;BME280;62579;47.288;18.646;2023-10-08T01:14:44;99930.28;;;20.03;44.98
74218;BME280;62579;47.288;18.646;2023-10-08T01:17:14;99924.91;;;20.05;45.35
74218;BME280;62579;47.288;18.646;2023-10-08T01:19:41;99927.72;;;19.97;45.73
74218;BME280;62579;47.288;18.646;2023-10-08T01:22:07;99928.09;;;19.94;46.08
74218;BME280;62579;47.288;18.646;2023-10-08T01:24:38;99920.62;;;19.79;46.14
74218;BME280;62579;47.288;18.646;2023-10-08T01:27:03;99921.38;;;19.72;46.41
74218;BME280;62579;47.288;18.646;2023-10-08T01:29:30;99917.28;;;19.81;46.15
74218;BME280;62579;47.288;18.646;2023-10-08T01:31:57;99915.81;;;19.79;46.34
74218;BME280;62579;47.288;18.646;2023-10-08T01:34:22;99907.22;;;19.68;46.93
74218;BME280;62579;47.288;18.646;2023-10-08T01:36:55;99911.22;;;19.74;47.05
74218;BME280;62579;47.288;18.646;2023-10-08T01:39:21;99899.47;;;19.66;47.58
74218;BME280;62579;47.288;18.646;2023-10-08T01:41:46;99893.63;;;19.62;47.90
74218;BME280;62579;47.288;18.646;2023-10-08T01:44:12;99887.00;;;19.58;48.31
74218;BME280;62579;47.288;18.646;2023-10-08T01:46:37;99882.03;;;19.56;48.34
74218;BME280;62579;47.288;18.646;2023-10-08T01:49:06;99880.19;;;19.59;47.80
74218;BME280;62579;47.288;18.646;2023-10-08T01:51:39;99872.28;;;19.55;48.05
74218;BME280;62579;47.288;18.646;2023-10-08T01:54:09;99881.84;;;19.62;47.91
74218;BME280;62579;47.288;18.646;2023-10-08T01:56:40;99869.13;;;19.59;47.76
74218;BME280;62579;47.288;18.646;2023-10-08T01:59:13;99867.62;;;19.73;47.68
74218;BME280;62579;47.288;18.646;2023-10-08T02:01:41;99866.91;;;19.65;47.62
74218;BME280;62579;47.288;18.646;2023-10-08T02:04:06;99872.06;;;19.68;46.99
74218;BME280;62579;47.288;18.646;2023-10-08T02:06:37;99868.91;;;19.72;47.02
74218;BME280;62579;47.288;18.646;2023-10-08T02:09:05;99877.72;;;19.78;46.74
74218;BME280;62579;47.288;18.646;2023-10-08T02:11:49;99873.13;;;19.73;46.85
74218;BME280;62579;47.288;18.646;2023-10-08T02:14:18;99875.91;;;19.73;46.87
74218;BME280;62579;47.288;18.646;2023-10-08T02:16:46;99873.34;;;19.67;46.93
74218;BME280;62579;47.288;18.646;2023-10-08T02:19:11;99887.97;;;19.85;46.81
74218;BME280;62579;47.288;18.646;2023-10-08T02:21:37;99883.81;;;19.69;47.39
74218;BME280;62579;47.288;18.646;2023-10-08T02:24:07;99886.78;;;19.71;47.58
74218;BME280;62579;47.288;18.646;2023-10-08T02:26:34;99889.75;;;19.65;47.98
74218;BME280;62579;47.288;18.646;2023-10-08T02:29:00;99892.69;;;19.60;48.46
74218;BME280;62579;47.288;18.646;2023-10-08T02:31:26;99884.41;;;19.60;48.56
74218;BME280;62579;47.288;18.646;2023-10-08T02:33:53;99886.66;;;19.54;49.16
74218;BME280;62579;47.288;18.646;2023-10-08T02:36:18;99883.09;;;19.68;48.02
74218;BME280;62579;47.288;18.646;2023-10-08T02:38:44;99896.13;;;19.75;48.48
74218;BME280;62579;47.288;18.646;2023-10-08T02:41:15;99880.31;;;19.76;48.09
74218;BME280;62579;47.288;18.646;2023-10-08T02:43:42;99871.34;;;20.00;46.20
74218;BME280;62579;47.288;18.646;2023-10-08T02:46:07;99869.81;;;20.07;46.45
74218;BME280;62579;47.288;18.646;2023-10-08T02:48:35;99882.13;;;20.13;46.44
74218;BME280;62579;47.288;18.646;2023-10-08T02:51:01;99881.94;;;20.19;46.17
74218;BME280;62579;47.288;18.646;2023-10-08T02:53:39;99874.75;;;20.16;45.95
74218;BME280;62579;47.288;18.646;2023-10-08T02:56:07;99871.19;;;20.23;45.90
74218;BME280;62579;47.288;18.646;2023-10-08T02:58:40;99871.03;;;20.21;45.95
74218;BME280;62579;47.288;18.646;2023-10-08T03:01:07;99879.75;;;20.10;46.72
74218;BME280;62579;47.288;18.646;2023-10-08T03:03:38;99871.09;;;20.13;46.94
74218;BME280;62579;47.288;18.646;2023-10-08T03:06:04;99868.91;;;20.04;47.05
74218;BME280;62579;47.288;18.646;2023-10-08T03:08:29;99863.66;;;19.91;47.30
74218;BME280;62579;47.288;18.646;2023-10-08T03:10:56;99864.19;;;19.97;47.32
74218;BME280;62579;47.288;18.646;2023-10-08T03:13:27;99857.06;;;19.87;47.68
74218;BME280;62579;47.288;18.646;2023-10-08T03:15:53;99874.91;;;19.86;47.89
74218;BME280;62579;47.288;18.646;2023-10-08T03:18:27;99872.72;;;19.84;48.05
74218;BME280;62579;47.288;18.646;2023-10-08T03:21:07;99870.53;;;19.75;48.46
74218;BME280;62579;47.288;18.646;2023-10-08T03:24:08;99859.66;;;19.85;48.30
74218;BME280;62579;47.288;18.646;2023-10-08T03:26:55;99849.22;;;19.68;48.79
74218;BME280;62579;47.288;18.646;2023-10-08T03:29:30;99840.75;;;19.66;49.10
74218;BME280;62579;47.288;18.646;2023-10-08T03:31:56;99824.19;;;19.66;49.36
74218;BME280;62579;47.288;18.646;2023-10-08T03:34:21;99846.31;;;19.58;49.87
74218;BME280;62579;47.288;18.646;2023-10-08T03:36:52;99856.44;;;19.56;49.99
74218;BME280;62579;47.288;18.646;2023-10-08T03:39:25;99835.47;;;19.53;50.19
74218;BME280;62579;47.288;18.646;2023-10-08T03:42:10;99838.81;;;19.51;50.30
74218;BME280;62579;47.288;18.646;2023-10-08T03:44:38;99839.00;;;19.46;50.63
74218;BME280;62579;47.288;18.646;2023-10-08T03:47:03;99842.88;;;19.35;50.79
74218;BME280;62579;47.288;18.646;2023-10-08T03:49:36;99833.53;;;19.31;51.08
74218;BME280;62579;47.288;18.646;2023-10-08T03:52:06;99827.09;;;19.20;51.35
74218;BME280;62579;47.288;18.646;2023-10-08T03:54:32;99825.78;;;19.29;51.13
74218;BME280;62579;47.288;18.646;2023-10-08T03:57:01;99839.03;;;19.31;51.27
74218;BME280;62579;47.288;18.646;2023-10-08T03:59:29;99831.69;;;19.26;51.50
74218;BME280;62579;47.288;18.646;2023-10-08T04:02:00;99836.50;;;19.25;51.52
74218;BME280;62579;47.288;18.646;2023-10-08T04:04:43;99844.22;;;19.19;51.65
74218;BME280;62579;47.288;18.646;2023-10-08T04:07:20;99855.78;;;19.17;51.57
74218;BME280;62579;47.288;18.646;2023-10-08T04:09:59;99847.53;;;19.25;51.63
74218;BME280;62579;47.288;18.646;2023-10-08T04:12:33;99852.66;;;19.29;51.36
74218;BME280;62579;47.288;18.646;2023-10-08T04:15:09;99846.06;;;19.16;51.67
74218;BME280;62579;47.288;18.646;2023-10-08T04:17:40;99830.25;;;19.17;51.48
74218;BME280;62579;47.288;18.646;2023-10-08T04:20:13;99832.44;;;19.18;51.49
74218;BME280;62579;47.288;18.646;2023-10-08T04:23:00;99828.78;;;19.16;51.48
74218;BME280;62579;47.288;18.646;2023-10-08T04:25:29;99823.81;;;19.14;51.25
74218;BME280;62579;47.288;18.646;2023-10-08T04:27:59;99807.38;;;19.32;50.62
74218;BME280;62579;47.288;18.646;2023-10-08T04:30:25;99810.94;;;19.17;51.06
74218;BME280;62579;47.288;18.646;2023-10-08T04:33:07;99810.22;;;19.16;51.01
74218;BME280;62579;47.288;18.646;2023-10-08T04:35:37;99813.09;;;19.26;50.56
74218;BME280;62579;47.288;18.646;2023-10-08T04:38:14;99813.66;;;19.32;50.39
74218;BME280;62579;47.288;18.646;2023-10-08T04:40:42;99815.66;;;19.32;50.20
74218;BME280;62579;47.288;18.646;2023-10-08T04:43:12;99815.69;;;19.24;50.41
74218;BME280;62579;47.288;18.646;2023-10-08T04:45:40;99818.44;;;19.24;50.22
74218;BME280;62579;47.288;18.646;2023-10-08T04:48:06;99814.41;;;19.25;50.01
74218;BME280;62579;47.288;18.646;2023-10-08T04:50:35;99824.16;;;19.26;50.10
74218;BME280;62579;47.288;18.646;2023-10-08T04:53:02;99813.81;;;19.34;49.57
74218;BME280;62579;47.288;18.646;2023-10-08T04:55:33;99816.03;;;19.36;49.63
74218;BME280;62579;47.288;18.646;2023-10-08T04:57:59;99812.34;;;19.41;49.18
74218;BME280;62579;47.288;18.646;2023-10-08T05:00:25;99810.72;;;19.38;49.24
74218;BME280;62579;47.288;18.646;2023-10-08T05:03:26;99803.50;;;19.42;48.99
74218;BME280;62579;47.288;18.646;2023-10-08T05:05:59;99810.13;;;19.39;49.20
74218;BME280;62579;47.288;18.646;2023-10-08T05:08:35;99816.16;;;19.53;48.88
74218;BME280;62579;47.288;18.646;2023-10-08T05:11:14;99812.81;;;19.62;48.51
74218;BME280;62579;47.288;18.646;2023-10-08T05:13:58;99824.22;;;19.58;48.70
74218;BME280;62579;47.288;18.646;2023-10-08T05:16:32;99826.37;;;19.75;48.23
74218;BME280;62579;47.288;18.646;2023-10-08T05:19:26;99821.38;;;19.81;47.97
74218;BME280;62579;47.288;18.646;2023-10-08T05:22:12;99811.81;;;19.74;48.15
74218;BME280;62579;47.288;18.646;2023-10-08T05:24:54;99823.28;;;19.96;47.53
74218;BME280;62579;47.288;18.646;2023-10-08T05:27:42;99820.38;;;19.94;47.87
74218;BME280;62579;47.288;18.646;2023-10-08T05:30:24;99818.34;;;19.94;48.10
74218;BME280;62579;47.288;18.646;2023-10-08T05:33:03;99823.13;;;19.94;48.16
74218;BME280;62579;47.288;18.646;2023-10-08T05:35:39;99822.28;;;19.84;48.63
74218;BME280;62579;47.288;18.646;2023-10-08T05:38:05;99822.31;;;19.76;48.96
74218;BME280;62579;47.288;18.646;2023-10-08T05:41:06;99825.13;;;19.68;49.40
74218;BME280;62579;47.288;18.646;2023-10-08T05:43:52;99833.09;;;19.89;49.62
74218;BME280;62579;47.288;18.646;2023-10-08T05:46:37;99832.91;;;20.19;48.91
74218;BME280;62579;47.288;18.646;2023-10-08T05:49:05;99831.88;;;20.40;48.65
74218;BME280;62579;47.288;18.646;2023-10-08T05:51:35;99833.59;;;20.52;47.80
74218;BME280;62579;47.288;18.646;2023-10-08T05:54:31;99840.31;;;20.66;47.46
74218;BME280;62579;47.288;18.646;2023-10-08T05:57:02;99829.38;;;20.76;47.29
74218;BME280;62579;47.288;18.646;2023-10-08T05:59:44;99834.16;;;20.75;47.00
74218;BME280;62579;47.288;18.646;2023-10-08T06:02:29;99828.94;;;20.79;47.13
74218;BME280;62579;47.288;18.646;2023-10-08T06:05:08;99828.03;;;20.77;47.25
74218;BME280;62579;47.288;18.646;2023-10-08T06:07:52;99834.66;;;20.81;47.03
74218;BME280;62579;47.288;18.646;2023-10-08T06:10:44;99846.38;;;20.89;46.84
74218;BME280;62579;47.288;18.646;2023-10-08T06:13:21;99855.47;;;20.82;47.21
74218;BME280;62579;47.288;18.646;2023-10-08T06:16:09;99858.75;;;20.88;47.21
74218;BME280;62579;47.288;18.646;2023-10-08T06:18:38;99865.50;;;20.95;46.90
74218;BME280;62579;47.288;18.646;2023-10-08T06:21:05;99859.62;;;20.91;46.85
74218;BME280;62579;47.288;18.646;2023-10-08T06:23:35;99870.47;;;20.96;46.83
74218;BME280;62579;47.288;18.646;2023-10-08T06:26:02;99867.78;;;20.89;47.00
74218;BME280;62579;47.288;18.646;2023-10-08T06:28:32;99877.38;;;20.88;47.59
74218;BME280;62579;47.288;18.646;2023-10-08T06:31:01;99878.91;;;20.81;47.61
74218;BME280;62579;47.288;18.646;2023-10-08T06:33:28;99869.56;;;20.94;46.97
74218;BME280;62579;47.288;18.646;2023-10-08T06:35:57;99878.44;;;20.92;46.94
74218;BME280;62579;47.288;18.646;2023-10-08T06:38:45;99870.34;;;20.87;47.26
74218;BME280;62579;47.288;18.646;2023-10-08T06:41:14;99877.13;;;20.93;47.11
74218;BME280;62579;47.288;18.646;2023-10-08T06:43:42;99872.72;;;20.90;47.12
74218;BME280;62579;47.288;18.646;2023-10-08T06:46:12;99876.75;;;20.97;47.10
74218;BME280;62579;47.288;18.646;2023-10-08T06:48:38;99883.81;;;20.90;47.19
74218;BME280;62579;47.288;18.646;2023-10-08T06:51:08;99880.06;;;20.95;46.98
74218;BME280;62579;47.288;18.646;2023-10-08T06:53:41;99889.41;;;21.08;46.41
74218;BME280;62579;47.288;18.646;2023-10-08T06:56:06;99891.12;;;20.95;46.62
74218;BME280;62579;47.288;18.646;2023-10-08T06:58:35;99886.69;;;21.00;46.97
74218;BME280;62579;47.288;18.646;2023-10-08T07:01:01;99894.00;;;21.05;46.89
74218;BME280;62579;47.288;18.646;2023-10-08T07:03:30;99873.16;;;21.04;46.79
74218;BME280;62579;47.288;18.646;2023-10-08T07:05:56;99890.06;;;21.16;46.95
74218;BME280;62579;47.288;18.646;2023-10-08T07:08:42;99898.59;;;21.10;47.39
74218;BME280;62579;47.288;18.646;2023-10-08T07:11:08;99885.66;;;21.13;48.64
74218;BME280;62579;47.288;18.646;2023-10-08T07:13:37;99884.28;;;21.21;48.37
74218;BME280;62579;47.288;18.646;2023-10-08T07:16:05;99882.16;;;21.29;48.21
74218;BME280;62579;47.288;18.646;2023-10-08T07:18:36;99886.16;;;21.19;48.66
74218;BME280;62579;47.288;18.646;2023-10-08T07:21:02;99881.41;;;21.12;48.68
74218;BME280;62579;47.288;18.646;2023-10-08T07:23:30;99880.84;;;21.13;48.81
74218;BME280;62579;47.288;18.646;2023-10-08T07:26:01;99879.87;;;21.18;49.31
74218;BME280;62579;47.288;18.646;2023-10-08T07:28:40;99881.66;;;21.23;49.23
74218;BME280;62579;47.288;18.646;2023-10-08T07:31:16;99885.91;;;21.07;49.66
74218;BME280;62579;47.288;18.646;2023-10-08T07:33:50;99883.94;;;21.17;49.59
74218;BME280;62579;47.288;18.646;2023-10-08T07:36:22;99879.97;;;21.11;49.64
74218;BME280;62579;47.288;18.646;2023-10-08T07:38:48;99875.50;;;21.32;49.57
74218;BME280;62579;47.288;18.646;2023-10-08T07:41:13;99891.44;;;21.41;49.32
74218;BME280;62579;47.288;18.646;2023-10-08T07:43:44;99892.66;;;21.48;49.46
74218;BME280;62579;47.288;18.646;2023-10-08T07:46:10;99890.94;;;21.52;49.52
74218;BME280;62579;47.288;18.646;2023-10-08T07:48:36;99880.59;;;21.53;49.60
74218;BME280;62579;47.288;18.646;2023-10-08T07:51:07;99888.09;;;21.60;49.63
74218;BME280;62579;47.288;18.646;2023-10-08T07:53:33;99874.56;;;21.64;49.70
74218;BME280;62579;47.288;18.646;2023-10-08T07:56:05;99871.06;;;21.64;49.86
74218;BME280;62579;47.288;18.646;2023-10-08T07:58:32;99866.75;;;21.53;50.04
74218;BME280;62579;47.288;18.646;2023-10-08T08:01:06;99874.25;;;21.60;49.98
74218;BME280;62579;47.288;18.646;2023-10-08T08:03:38;99869.44;;;21.61;49.93
74218;BME280;62579;47.288;18.646;2023-10-08T08:06:08;99867.81;;;21.58;50.13
74218;BME280;62579;47.288;18.646;2023-10-08T08:08:36;99886.31;;;21.55;49.73
74218;BME280;62579;47.288;18.646;2023-10-08T08:11:02;99885.00;;;21.56;50.29
74218;BME280;62579;47.288;18.646;2023-10-08T08:13:35;99886.16;;;21.53;50.19
74218;BME280;62579;47.288;18.646;2023-10-08T08:16:01;99888.13;;;21.43;50.49
74218;BME280;62579;47.288;18.646;2023-10-08T08:18:42;99880.03;;;21.54;50.53
74218;BME280;62579;47.288;18.646;2023-10-08T08:21:11;99889.97;;;21.58;50.69
74218;BME280;62579;47.288;18.646;2023-10-08T08:23:43;99888.81;;;21.61;50.57
74218;BME280;62579;47.288;18.646;2023-10-08T08:26:24;99904.88;;;21.62;50.49
74218;BME280;62579;47.288;18.646;2023-10-08T08:28:54;99892.34;;;21.61;50.80
74218;BME280;62579;47.288;18.646;2023-10-08T08:31:20;99884.19;;;21.63;50.59
74218;BME280;62579;47.288;18.646;2023-10-08T08:33:46;99889.31;;;21.67;51.11
74218;BME280;62579;47.288;18.646;2023-10-08T08:36:29;99871.72;;;21.54;51.46
74218;BME280;62579;47.288;18.646;2023-10-08T08:38:55;99882.88;;;21.47;51.87
74218;BME280;62579;47.288;18.646;2023-10-08T08:41:21;99873.13;;;21.29;52.00
74218;BME280;62579;47.288;18.646;2023-10-08T08:43:48;99850.88;;;21.36;52.10
74218;BME280;62579;47.288;18.646;2023-10-08T08:46:15;99859.03;;;21.34;52.41
74218;BME280;62579;47.288;18.646;2023-10-08T08:48:43;99860.34;;;21.33;52.44
74218;BME280;62579;47.288;18.646;2023-10-08T08:51:10;99864.19;;;21.38;52.39
74218;BME280;62579;47.288;18.646;2023-10-08T08:53:36;99864.72;;;21.36;52.29
74218;BME280;62579;47.288;18.646;2023-10-08T08:56:02;99870.28;;;21.36;52.80
74218;BME280;62579;47.288;18.646;2023-10-08T08:58:33;99881.94;;;21.35;52.91
74218;BME280;62579;47.288;18.646;2023-10-08T09:00:58;99885.00;;;21.39;53.05
74218;BME280;62579;47.288;18.646;2023-10-08T09:03:24;99896.00;;;21.46;53.26
74218;BME280;62579;47.288;18.646;2023-10-08T09:05:58;99898.38;;;21.50;52.95
74218;BME280;62579;47.288;18.646;2023-10-08T09:08:28;99919.63;;;21.47;53.60
74218;BME280;62579;47.288;18.646;2023-10-08T09:11:00;99904.31;;;21.46;53.65
74218;BME280;62579;47.288;18.646;2023-10-08T09:13:31;99926.06;;;21.50;53.68
74218;BME280;62579;47.288;18.646;2023-10-08T09:16:15;99917.81;;;21.60;53.33
74218;BME280;62579;47.288;18.646;2023-10-08T09:18:42;99930.53;;;21.63;53.49
74218;BME280;62579;47.288;18.646;2023-10-08T09:21:10;99934.84;;;21.73;52.98
74218;BME280;62579;47.288;18.646;2023-10-08T09:23:43;99924.56;;;21.83;52.81
74218;BME280;62579;47.288;18.646;2023-10-08T09:26:11;99931.19;;;21.88;52.35
74218;BME280;62579;47.288;18.646;2023-10-08T09:28:40;99932.97;;;21.93;52.66
74218;BME280;62579;47.288;18.646;2023-10-08T09:31:10;99953.09;;;21.93;52.53
74218;BME280;62579;47.288;18.646;2023-10-08T09:33:36;99953.84;;;21.94;52.39
74218;BME280;62579;47.288;18.646;2023-10-08T09:36:02;99965.56;;;21.85;52.71
74218;BME280;62579;47.288;18.646;2023-10-08T09:38:28;99977.47;;;21.95;52.47
74218;BME280;62579;47.288;18.646;2023-10-08T09:40:55;99977.31;;;21.93;52.84
74218;BME280;62579;47.288;18.646;2023-10-08T09:43:22;99974.38;;;21.91;52.33
74218;BME280;62579;47.288;18.646;2023-10-08T09:45:55;99978.44;;;21.73;52.68
74218;BME280;62579;47.288;18.646;2023-10-08T09:48:26;99977.13;;;21.74;52.90
74218;BME280;62579;47.288;18.646;2023-10-08T09:50:54;99977.03;;;21.81;52.99
74218;BME280;62579;47.288;18.646;2023-10-08T09:53:34;99980.97;;;21.78;53.14
74218;BME280;62579;47.288;18.646;2023-10-08T09:56:10;99972.22;;;21.82;52.85
74218;BME280;62579;47.288;18.646;2023-10-08T09:58:39;99987.41;;;21.81;52.71
74218;BME280;62579;47.288;18.646;2023-10-08T10:01:06;99991.22;;;21.85;52.91
74218;BME280;62579;47.288;18.646;2023-10-08T10:03:32;99990.66;;;21.87;52.61
74218;BME280;62579;47.288;18.646;2023-10-08T10:06:01;99979.41;;;21.85;53.10
74218;BME280;62579;47.288;18.646;2023-10-08T10:08:27;99988.63;;;21.87;53.07
74218;BME280;62579;47.288;18.646;2023-10-08T10:11:00;99992.47;;;21.92;53.09
74218;BME280;62579;47.288;18.646;2023-10-08T10:13:34;99990.34;;;22.00;53.11
74218;BME280;62579;47.288;18.646;2023-10-08T10:15:59;99979.63;;;22.13;53.25
74218;BME280;62579;47.288;18.646;2023-10-08T10:20:59;99992.69;;;22.21;54.33
74218;BME280;62579;47.288;18.646;2023-10-08T10:23:44;100005.47;;;22.16;55.45
74218;BME280;62579;47.288;18.646;2023-10-08T10:26:29;100031.16;;;22.34;55.71
74218;BME280;62579;47.288;18.646;2023-10-08T10:31:41;100044.72;;;21.95;57.01
74218;BME280;62579;47.288;18.646;2023-10-08T10:34:15;100055.81;;;21.53;58.23
74218;BME280;62579;47.288;18.646;2023-10-08T10:36:43;100073.66;;;21.60;58.27
74218;BME280;62579;47.288;18.646;2023-10-08T10:39:12;100058.19;;;21.74;58.05
74218;BME280;62579;47.288;18.646;2023-10-08T10:41:55;100059.94;;;21.45;57.12
74218;BME280;62579;47.288;18.646;2023-10-08T10:44:25;100066.91;;;21.29;57.43
74218;BME280;62579;47.288;18.646;2023-10-08T10:46:51;100062.56;;;21.18;56.20
74218;BME280;62579;47.288;18.646;2023-10-08T10:49:37;100074.06;;;21.07;55.84
74218;BME280;62579;47.288;18.646;2023-10-08T10:52:13;100086.81;;;21.03;55.17
74218;BME280;62579;47.288;18.646;2023-10-08T10:54:44;100087.34;;;20.69;55.54
74218;BME280;62579;47.288;18.646;2023-10-08T10:57:24;100095.66;;;20.69;55.84
74218;BME280;62579;47.288;18.646;2023-10-08T10:59:52;100102.19;;;20.49;54.89
74218;BME280;62579;47.288;18.646;2023-10-08T11:02:18;100098.75;;;20.18;54.95
74218;BME280;62579;47.288;18.646;2023-10-08T11:05:05;100112.75;;;20.20;55.40
74218;BME280;62579;47.288;18.646;2023-10-08T11:07:45;100104.16;;;20.01;55.67
74218;BME280;62579;47.288;18.646;2023-10-08T11:10:11;100110.06;;;19.90;56.24
74218;BME280;62579;47.288;18.646;2023-10-08T11:12:41;100119.84;;;19.60;57.27
74218;BME280;62579;47.288;18.646;2023-10-08T11:15:13;100108.75;;;19.83;56.52
74218;BME280;62579;47.288;18.646;2023-10-08T11:17:41;100111.87;;;19.79;56.01
74218;BME280;62579;47.288;18.646;2023-10-08T11:20:30;100114.13;;;19.73;56.48
74218;BME280;62579;47.288;18.646;2023-10-08T11:22:57;100108.59;;;19.73;56.12
74218;BME280;62579;47.288;18.646;2023-10-08T11:25:52;100094.78;;;19.66;56.79
74218;BME280;62579;47.288;18.646;2023-10-08T11:28:17;100106.38;;;19.64;56.91
74218;BME280;62579;47.288;18.646;2023-10-08T11:30:43;100107.50;;;19.54;57.51
74218;BME280;62579;47.288;18.646;2023-10-08T11:33:12;100107.31;;;19.59;57.21
74218;BME280;62579;47.288;18.646;2023-10-08T11:35:55;100110.06;;;19.52;57.85
74218;BME280;62579;47.288;18.646;2023-10-08T11:38:21;100116.34;;;19.52;58.64
74218;BME280;62579;47.288;18.646;2023-10-08T11:40:47;100117.25;;;19.70;57.79
74218;BME280;62579;47.288;18.646;2023-10-08T11:43:24;100129.03;;;19.78;58.14
74218;BME280;62579;47.288;18.646;2023-10-08T11:45:50;100118.91;;;19.65;57.74
74218;BME280;62579;47.288;18.646;2023-10-08T11:48:16;100133.06;;;19.47;58.71
74218;BME280;62579;47.288;18.646;2023-10-08T11:50:54;100136.00;;;19.41;58.97
74218;BME280;62579;47.288;18.646;2023-10-08T11:53:22;100137.78;;;19.31;59.88
74218;BME280;62579;47.288;18.646;2023-10-08T11:55:50;100139.44;;;19.19;59.48
74218;BME280;62579;47.288;18.646;2023-10-08T11:58:19;100160.91;;;18.98;60.56
74218;BME280;62579;47.288;18.646;2023-10-08T12:00:45;100154.97;;;18.86;60.51
74218;BME280;62579;47.288;18.646;2023-10-08T12:03:12;100160.13;;;18.82;59.23
74218;BME280;62579;47.288;18.646;2023-10-08T12:05:38;100176.84;;;18.48;59.11
74218;BME280;62579;47.288;18.646;2023-10-08T12:08:15;100179.22;;;18.24;59.87
74218;BME280;62579;47.288;18.646;2023-10-08T12:10:43;100190.41;;;18.18;59.53
74218;BME280;62579;47.288;18.646;2023-10-08T12:13:10;100199.16;;;17.88;59.96
74218;BME280;62579;47.288;18.646;2023-10-08T12:15:36;100200.78;;;17.84;59.18
74218;BME280;62579;47.288;18.646;2023-10-08T12:18:06;100204.25;;;18.05;58.18
74218;BME280;62579;47.288;18.646;2023-10-08T12:20:50;100209.19;;;17.78;59.36
74218;BME280;62579;47.288;18.646;2023-10-08T12:23:16;100197.84;;;17.61;58.65
74218;BME280;62579;47.288;18.646;2023-10-08T12:25:52;100210.78;;;17.74;59.20
74218;BME280;62579;47.288;18.646;2023-10-08T12:28:18;100218.84;;;17.72;59.61
74218;BME280;62579;47.288;18.646;2023-10-08T12:30:44;100216.00;;;17.64;59.96
74218;BME280;62579;47.288;18.646;2023-10-08T12:33:10;100225.25;;;17.54;59.97
74218;BME280;62579;47.288;18.646;2023-10-08T12:35:44;100219.84;;;17.48;60.08
74218;BME280;62579;47.288;18.646;2023-10-08T12:38:09;100212.56;;;17.51;60.34
74218;BME280;62579;47.288;18.646;2023-10-08T12:40:36;100218.44;;;17.68;59.99
74218;BME280;62579;47.288;18.646;2023-10-08T12:43:13;100219.84;;;17.61;60.79
74218;BME280;62579;47.288;18.646;2023-10-08T12:45:39;100221.00;;;17.66;61.71
74218;BME280;62579;47.288;18.646;2023-10-08T12:48:04;100234.38;;;17.82;61.44
74218;BME280;62579;47.288;18.646;2023-10-08T12:50:31;100256.78;;;17.53;60.36
74218;BME280;62579;47.288;18.646;2023-10-08T12:53:08;100253.41;;;17.47;61.42
74218;BME280;62579;47.288;18.646;2023-10-08T12:55:39;100253.53;;;17.41;60.25
74218;BME280;62579;47.288;18.646;2023-10-08T12:58:05;100258.66;;;17.24;61.28
74218;BME280;62579;47.288;18.646;2023-10-08T13:00:35;100260.81;;;17.18;60.26
74218;BME280;62579;47.288;18.646;2023-10-08T13:03:03;100275.75;;;16.83;61.31
74218;BME280;62579;47.288;18.646;2023-10-08T13:05:31;100272.56;;;16.79;61.55
74218;BME280;62579;47.288;18.646;2023-10-08T13:07:58;100282.50;;;16.95;60.85
74218;BME280;62579;47.288;18.646;2023-10-08T13:10:29;100280.50;;;16.83;61.31
74218;BME280;62579;47.288;18.646;2023-10-08T13:12:56;100281.34;;;16.91;61.04
74218;BME280;62579;47.288;18.646;2023-10-08T13:15:22;100291.37;;;16.75;60.31